Airfield :
LOGIN :

Register | Disclaimer

   EN    FR    IT 

 










Legend :    VFR   Marginal VFR   IFR   Intensive IFR   Very Intensive IFR
Visi :
Ceiling :
>= 8 km
>= 3000ft
5 to 8 km
1000 to 3000 ft
1500m to 5 km
500 to 1000 ft
800 to 1500m
200 to 500 ft
< 800m
< 200 ft
Symbols :   Thunderstorms  Fog  Heavy snow  Heavy precipitations  Wind > 20 kt
SIGMETs :     Misc.  Thunderstorms  Icing  Turbulence  Mountain Waves  Volcanic Ashes







- Airport Elevation : 464 ft
- IATA code : EVX
- Download approach charts


LFOE - Evreux

CURRENT METAR :
  • 182000Z AUTO 06004KT 020V110 CAVOK 04/M00 Q1020 NOSIG

EXPIRED METARs :
  • 181930Z AUTO 05007KT CAVOK 04/00 Q1020 NOSIG
  • 181900Z AUTO 05009KT CAVOK 05/00 Q1020 NOSIG
  • 181830Z AUTO 06010KT CAVOK 05/00 Q1020 NOSIG
  • 181800Z AUTO 05012KT CAVOK 05/01 Q1020 NOSIG
  • 181730Z AUTO 04014KT CAVOK 05/01 Q1020 NOSIG

TAF TAF LFOE
Valid from the 18 at 15:00 until the 19 at 15:00 UTC


181400Z 1815/1915 05010KT CAVOK
TEMPO 1815/1818 06010G20KT
No reported NOTAMs for that airfield.
1 SIGMET reported for the Paris FIR (LFFF) :
 
Severe turbulence
LFFF SIGMET 2 VALID 181700/182100 LFPW
LFFF PARIS FIR/UIR SEV TURB FCST S OF LINE N4815 E00515 - N4845 W00015 FL320/380 MOV SW 15KT NC=



MET'MAP, your aeronautical weather chart ! - Copyright ORBIFLY December 2007 - Disclaimer

ORBIFLY MET'MAP TEAM :

Programming & Development : Alexandra Zaïnal
Concept & Development : Baudouin d'Aumeries
Co-Development & Prog : Marc-Olivier Méhu
Technical & hardware support : Manuel Goepfert

Contact : metmap@orbifly.com




SOURCES & CREDITS :

   NOAA